Terminal Aerodrome Forecast
Issued by NWS

Home | Current Version | Previous Version | Graphics & Text | Print | Product List | Glossary On
Versions: 1 2 3 4 5 6 7 8 9 10 11 12 13 14 15 16 17 18 19 20 21 22
000
FTUS43 KTOP 251500 AAB
TAFMHK
TAF AMD
KMHK 251551Z 2516/2612 26007KT P6SM VCTS BKN120CB
      TEMPO 2516/2517 26010G20KT 5SM -TSRA BKN090CB
     FM251700 VRB05KT P6SM FEW120
     FM260100 16005KT P6SM SCT250=

USA.gov is the U.S. government's official web portal to all federal, state and local government web resources and services.